sensor_id;sensor_type;location;lat;lon;timestamp;P1;durP1;ratioP1;P2;durP2;ratioP2
50367;SDS011;36281;34.132;-118.018;2024-02-26T00:00:54;10.70;;;5.80;;
50367;SDS011;36281;34.132;-118.018;2024-02-26T00:03:23;7.80;;;5.32;;
50367;SDS011;36281;34.132;-118.018;2024-02-26T00:05:52;9.02;;;4.53;;
50367;SDS011;36281;34.132;-118.018;2024-02-26T00:08:21;10.15;;;4.57;;
50367;SDS011;36281;34.132;-118.018;2024-02-26T00:10:52;10.27;;;4.72;;
50367;SDS011;36281;34.132;-118.018;2024-02-26T00:13:21;6.72;;;3.97;;
50367;SDS011;36281;34.132;-118.018;2024-02-26T00:15:50;7.93;;;4.75;;
50367;SDS011;36281;34.132;-118.018;2024-02-26T00:18:19;9.90;;;4.85;;
50367;SDS011;36281;34.132;-118.018;2024-02-26T00:20:48;7.40;;;4.90;;
50367;SDS011;36281;34.132;-118.018;2024-02-26T00:23:18;8.00;;;5.68;;
50367;SDS011;36281;34.132;-118.018;2024-02-26T00:25:47;9.70;;;5.97;;
50367;SDS011;36281;34.132;-118.018;2024-02-26T00:28:18;10.35;;;5.90;;
50367;SDS011;36281;34.132;-118.018;2024-02-26T00:30:49;7.78;;;5.25;;
50367;SDS011;36281;34.132;-118.018;2024-02-26T00:33:23;7.75;;;5.18;;
50367;SDS011;36281;34.132;-118.018;2024-02-26T00:35:52;8.48;;;4.95;;
50367;SDS011;36281;34.132;-118.018;2024-02-26T00:38:21;7.55;;;5.30;;
50367;SDS011;36281;34.132;-118.018;2024-02-26T00:40:50;5.55;;;5.00;;
50367;SDS011;36281;34.132;-118.018;2024-02-26T00:43:21;9.60;;;5.78;;
50367;SDS011;36281;34.132;-118.018;2024-02-26T00:45:51;11.18;;;5.85;;
50367;SDS011;36281;34.132;-118.018;2024-02-26T00:48:20;8.23;;;5.20;;
50367;SDS011;36281;34.132;-118.018;2024-02-26T00:50:49;7.35;;;4.68;;
50367;SDS011;36281;34.132;-118.018;2024-02-26T00:53:18;8.32;;;4.47;;
50367;SDS011;36281;34.132;-118.018;2024-02-26T00:55:47;6.80;;;4.80;;
50367;SDS011;36281;34.132;-118.018;2024-02-26T00:58:16;7.43;;;5.07;;
50367;SDS011;36281;34.132;-118.018;2024-02-26T01:00:48;5.85;;;4.78;;
50367;SDS011;36281;34.132;-118.018;2024-02-26T01:03:17;7.43;;;4.60;;
50367;SDS011;36281;34.132;-118.018;2024-02-26T01:05:46;8.55;;;4.20;;
50367;SDS011;36281;34.132;-118.018;2024-02-26T01:08:16;6.78;;;3.85;;
50367;SDS011;36281;34.132;-118.018;2024-02-26T01:10:45;5.65;;;4.05;;
50367;SDS011;36281;34.132;-118.018;2024-02-26T01:13:14;8.40;;;4.22;;
50367;SDS011;36281;34.132;-118.018;2024-02-26T01:15:43;6.43;;;3.88;;
50367;SDS011;36281;34.132;-118.018;2024-02-26T01:18:14;7.03;;;4.43;;
50367;SDS011;36281;34.132;-118.018;2024-02-26T01:20:44;8.13;;;4.80;;
50367;SDS011;36281;34.132;-118.018;2024-02-26T01:23:13;6.93;;;4.13;;
50367;SDS011;36281;34.132;-118.018;2024-02-26T01:25:42;7.28;;;4.00;;
50367;SDS011;36281;34.132;-118.018;2024-02-26T01:28:11;7.03;;;4.18;;
50367;SDS011;36281;34.132;-118.018;2024-02-26T01:30:46;5.03;;;3.85;;
50367;SDS011;36281;34.132;-118.018;2024-02-26T01:33:17;8.35;;;4.25;;
50367;SDS011;36281;34.132;-118.018;2024-02-26T01:35:46;6.15;;;4.20;;
50367;SDS011;36281;34.132;-118.018;2024-02-26T01:38:15;8.10;;;4.20;;
50367;SDS011;36281;34.132;-118.018;2024-02-26T01:40:45;6.50;;;4.00;;
50367;SDS011;36281;34.132;-118.018;2024-02-26T01:43:14;6.45;;;3.60;;
50367;SDS011;36281;34.132;-118.018;2024-02-26T01:45:43;6.40;;;3.65;;
50367;SDS011;36281;34.132;-118.018;2024-02-26T01:48:12;6.25;;;3.05;;
50367;SDS011;36281;34.132;-118.018;2024-02-26T01:50:43;4.75;;;2.92;;
50367;SDS011;36281;34.132;-118.018;2024-02-26T01:53:12;6.15;;;3.03;;
50367;SDS011;36281;34.132;-118.018;2024-02-26T01:55:42;5.47;;;3.08;;
50367;SDS011;36281;34.132;-118.018;2024-02-26T01:58:11;4.47;;;3.10;;
50367;SDS011;36281;34.132;-118.018;2024-02-26T02:00:41;4.32;;;2.70;;
50367;SDS011;36281;34.132;-118.018;2024-02-26T02:03:11;4.80;;;2.72;;
50367;SDS011;36281;34.132;-118.018;2024-02-26T02:05:40;4.10;;;3.17;;
50367;SDS011;36281;34.132;-118.018;2024-02-26T02:08:12;3.50;;;3.00;;
50367;SDS011;36281;34.132;-118.018;2024-02-26T02:10:44;5.00;;;3.20;;
50367;SDS011;36281;34.132;-118.018;2024-02-26T02:13:16;4.90;;;3.15;;
50367;SDS011;36281;34.132;-118.018;2024-02-26T02:15:45;5.20;;;3.20;;
50367;SDS011;36281;34.132;-118.018;2024-02-26T02:18:15;5.03;;;2.75;;
50367;SDS011;36281;34.132;-118.018;2024-02-26T02:20:46;4.47;;;3.00;;
50367;SDS011;36281;34.132;-118.018;2024-02-26T02:23:15;3.53;;;2.67;;
50367;SDS011;36281;34.132;-118.018;2024-02-26T02:25:44;4.47;;;2.80;;
50367;SDS011;36281;34.132;-118.018;2024-02-26T02:28:13;3.92;;;2.75;;
50367;SDS011;36281;34.132;-118.018;2024-02-26T02:30:42;4.35;;;2.75;;
50367;SDS011;36281;34.132;-118.018;2024-02-26T02:33:12;3.83;;;2.60;;
50367;SDS011;36281;34.132;-118.018;2024-02-26T02:35:43;4.85;;;2.67;;
50367;SDS011;36281;34.132;-118.018;2024-02-26T02:38:15;6.63;;;2.80;;
50367;SDS011;36281;34.132;-118.018;2024-02-26T02:40:44;3.67;;;2.70;;
50367;SDS011;36281;34.132;-118.018;2024-02-26T02:43:13;4.13;;;2.67;;
50367;SDS011;36281;34.132;-118.018;2024-02-26T02:45:42;4.53;;;3.13;;
50367;SDS011;36281;34.132;-118.018;2024-02-26T02:48:11;6.90;;;3.00;;
50367;SDS011;36281;34.132;-118.018;2024-02-26T02:50:41;4.32;;;2.95;;
50367;SDS011;36281;34.132;-118.018;2024-02-26T02:53:10;4.22;;;2.78;;
50367;SDS011;36281;34.132;-118.018;2024-02-26T02:55:41;3.67;;;2.70;;
50367;SDS011;36281;34.132;-118.018;2024-02-26T02:58:10;5.25;;;3.10;;
50367;SDS011;36281;34.132;-118.018;2024-02-26T03:00:39;4.50;;;2.75;;
50367;SDS011;36281;34.132;-118.018;2024-02-26T03:03:08;5.30;;;2.90;;
50367;SDS011;36281;34.132;-118.018;2024-02-26T03:05:37;3.83;;;3.15;;
50367;SDS011;36281;34.132;-118.018;2024-02-26T03:08:06;5.13;;;3.15;;
50367;SDS011;36281;34.132;-118.018;2024-02-26T03:10:36;4.05;;;2.90;;
50367;SDS011;36281;34.132;-118.018;2024-02-26T03:13:07;4.85;;;3.40;;
50367;SDS011;36281;34.132;-118.018;2024-02-26T03:15:36;6.32;;;3.80;;
50367;SDS011;36281;34.132;-118.018;2024-02-26T03:18:05;5.97;;;3.97;;
50367;SDS011;36281;34.132;-118.018;2024-02-26T03:20:34;5.43;;;3.80;;
50367;SDS011;36281;34.132;-118.018;2024-02-26T03:23:04;6.68;;;3.83;;
50367;SDS011;36281;34.132;-118.018;2024-02-26T03:25:33;8.38;;;4.10;;
50367;SDS011;36281;34.132;-118.018;2024-02-26T03:28:02;6.60;;;4.28;;
50367;SDS011;36281;34.132;-118.018;2024-02-26T03:30:34;6.18;;;4.07;;
50367;SDS011;36281;34.132;-118.018;2024-02-26T03:33:03;6.60;;;3.80;;
50367;SDS011;36281;34.132;-118.018;2024-02-26T03:35:32;6.25;;;4.20;;
50367;SDS011;36281;34.132;-118.018;2024-02-26T03:38:01;6.45;;;4.30;;
50367;SDS011;36281;34.132;-118.018;2024-02-26T03:40:30;4.97;;;4.10;;
50367;SDS011;36281;34.132;-118.018;2024-02-26T03:43:00;9.57;;;4.88;;
50367;SDS011;36281;34.132;-118.018;2024-02-26T03:45:30;6.55;;;4.22;;
50367;SDS011;36281;34.132;-118.018;2024-02-26T03:48:00;7.70;;;4.47;;
50367;SDS011;36281;34.132;-118.018;2024-02-26T03:50:30;7.55;;;4.45;;
50367;SDS011;36281;34.132;-118.018;2024-02-26T03:53:00;5.32;;;4.32;;
50367;SDS011;36281;34.132;-118.018;2024-02-26T03:55:29;6.53;;;4.28;;
50367;SDS011;36281;34.132;-118.018;2024-02-26T03:57:58;7.30;;;4.68;;
50367;SDS011;36281;34.132;-118.018;2024-02-26T04:00:27;6.72;;;4.63;;
50367;SDS011;36281;34.132;-118.018;2024-02-26T04:03:02;5.82;;;4.80;;
50367;SDS011;36281;34.132;-118.018;2024-02-26T04:05:32;6.32;;;4.60;;
50367;SDS011;36281;34.132;-118.018;2024-02-26T04:08:01;5.30;;;4.80;;
50367;SDS011;36281;34.132;-118.018;2024-02-26T04:10:32;8.13;;;4.97;;
50367;SDS011;36281;34.132;-118.018;2024-02-26T04:13:02;8.25;;;4.68;;
50367;SDS011;36281;34.132;-118.018;2024-02-26T04:15:32;6.18;;;4.57;;
50367;SDS011;36281;34.132;-118.018;2024-02-26T04:18:02;9.60;;;5.15;;
50367;SDS011;36281;34.132;-118.018;2024-02-26T04:20:32;6.93;;;5.30;;
50367;SDS011;36281;34.132;-118.018;2024-02-26T04:23:02;10.18;;;5.78;;
50367;SDS011;36281;34.132;-118.018;2024-02-26T04:25:31;14.80;;;6.05;;
50367;SDS011;36281;34.132;-118.018;2024-02-26T04:28:00;14.02;;;6.35;;
50367;SDS011;36281;34.132;-118.018;2024-02-26T04:30:29;9.45;;;6.15;;
50367;SDS011;36281;34.132;-118.018;2024-02-26T04:32:58;9.85;;;6.18;;
50367;SDS011;36281;34.132;-118.018;2024-02-26T04:35:29;11.07;;;5.68;;
50367;SDS011;36281;34.132;-118.018;2024-02-26T04:37:58;8.68;;;5.82;;
50367;SDS011;36281;34.132;-118.018;2024-02-26T04:40:27;10.93;;;7.20;;
50367;SDS011;36281;34.132;-118.018;2024-02-26T04:42:56;10.60;;;7.72;;
50367;SDS011;36281;34.132;-118.018;2024-02-26T04:45:25;10.60;;;7.53;;
50367;SDS011;36281;34.132;-118.018;2024-02-26T04:47:55;10.20;;;7.80;;
50367;SDS011;36281;34.132;-118.018;2024-02-26T04:50:24;12.75;;;8.25;;
50367;SDS011;36281;34.132;-118.018;2024-02-26T04:52:55;10.32;;;8.52;;
50367;SDS011;36281;34.132;-118.018;2024-02-26T04:55:24;14.30;;;10.20;;
50367;SDS011;36281;34.132;-118.018;2024-02-26T04:57:53;13.73;;;10.48;;
50367;SDS011;36281;34.132;-118.018;2024-02-26T05:00:22;14.55;;;9.95;;
50367;SDS011;36281;34.132;-118.018;2024-02-26T05:02:51;14.48;;;9.88;;
50367;SDS011;36281;34.132;-118.018;2024-02-26T05:05:20;16.88;;;10.45;;
50367;SDS011;36281;34.132;-118.018;2024-02-26T05:07:49;13.63;;;9.75;;
50367;SDS011;36281;34.132;-118.018;2024-02-26T05:10:20;11.65;;;9.50;;
50367;SDS011;36281;34.132;-118.018;2024-02-26T05:12:49;10.90;;;8.90;;
50367;SDS011;36281;34.132;-118.018;2024-02-26T05:15:18;10.25;;;8.30;;
50367;SDS011;36281;34.132;-118.018;2024-02-26T05:17:47;11.88;;;8.30;;
50367;SDS011;36281;34.132;-118.018;2024-02-26T05:20:16;10.77;;;7.82;;
50367;SDS011;36281;34.132;-118.018;2024-02-26T05:22:45;12.70;;;7.60;;
50367;SDS011;36281;34.132;-118.018;2024-02-26T05:25:15;10.75;;;7.93;;
50367;SDS011;36281;34.132;-118.018;2024-02-26T05:27:46;11.05;;;8.60;;
50367;SDS011;36281;34.132;-118.018;2024-02-26T05:30:16;12.48;;;8.38;;
50367;SDS011;36281;34.132;-118.018;2024-02-26T05:32:45;11.90;;;8.45;;
50367;SDS011;36281;34.132;-118.018;2024-02-26T05:35:14;11.57;;;8.52;;
50367;SDS011;36281;34.132;-118.018;2024-02-26T05:37:43;10.43;;;8.48;;
50367;SDS011;36281;34.132;-118.018;2024-02-26T05:40:12;12.43;;;8.65;;
50367;SDS011;36281;34.132;-118.018;2024-02-26T05:42:42;15.35;;;9.38;;
50367;SDS011;36281;34.132;-118.018;2024-02-26T05:45:15;13.80;;;9.15;;
50367;SDS011;36281;34.132;-118.018;2024-02-26T05:47:45;13.50;;;9.48;;
50367;SDS011;36281;34.132;-118.018;2024-02-26T05:50:14;14.10;;;10.00;;
50367;SDS011;36281;34.132;-118.018;2024-02-26T05:52:43;13.15;;;9.00;;
50367;SDS011;36281;34.132;-118.018;2024-02-26T05:55:12;10.75;;;9.65;;
50367;SDS011;36281;34.132;-118.018;2024-02-26T05:57:42;14.10;;;9.30;;
50367;SDS011;36281;34.132;-118.018;2024-02-26T06:00:11;15.57;;;10.40;;
50367;SDS011;36281;34.132;-118.018;2024-02-26T06:02:43;13.05;;;10.18;;
50367;SDS011;36281;34.132;-118.018;2024-02-26T06:05:12;15.07;;;10.50;;
50367;SDS011;36281;34.132;-118.018;2024-02-26T06:07:41;11.05;;;9.88;;
50367;SDS011;36281;34.132;-118.018;2024-02-26T06:10:11;13.00;;;9.73;;
50367;SDS011;36281;34.132;-118.018;2024-02-26T06:12:41;15.48;;;9.98;;
50367;SDS011;36281;34.132;-118.018;2024-02-26T06:15:10;15.07;;;9.82;;
50367;SDS011;36281;34.132;-118.018;2024-02-26T06:17:40;14.57;;;10.35;;
50367;SDS011;36281;34.132;-118.018;2024-02-26T06:20:11;12.63;;;9.70;;
50367;SDS011;36281;34.132;-118.018;2024-02-26T06:22:41;14.88;;;10.13;;
50367;SDS011;36281;34.132;-118.018;2024-02-26T06:25:10;14.52;;;10.68;;
50367;SDS011;36281;34.132;-118.018;2024-02-26T06:27:39;15.10;;;11.35;;
50367;SDS011;36281;34.132;-118.018;2024-02-26T06:30:09;12.82;;;10.95;;
50367;SDS011;36281;34.132;-118.018;2024-02-26T06:32:38;14.15;;;11.38;;
50367;SDS011;36281;34.132;-118.018;2024-02-26T06:35:08;14.52;;;10.63;;
50367;SDS011;36281;34.132;-118.018;2024-02-26T06:37:41;17.20;;;11.45;;
50367;SDS011;36281;34.132;-118.018;2024-02-26T06:40:10;14.82;;;11.20;;
50367;SDS011;36281;34.132;-118.018;2024-02-26T06:42:39;15.18;;;11.48;;
50367;SDS011;36281;34.132;-118.018;2024-02-26T06:45:08;13.57;;;10.63;;
50367;SDS011;36281;34.132;-118.018;2024-02-26T06:47:37;14.02;;;11.15;;
50367;SDS011;36281;34.132;-118.018;2024-02-26T06:50:07;14.63;;;11.98;;
50367;SDS011;36281;34.132;-118.018;2024-02-26T06:52:37;17.35;;;12.38;;
50367;SDS011;36281;34.132;-118.018;2024-02-26T06:55:08;17.30;;;12.23;;
50367;SDS011;36281;34.132;-118.018;2024-02-26T06:57:37;17.63;;;12.77;;
50367;SDS011;36281;34.132;-118.018;2024-02-26T07:00:06;15.02;;;12.43;;
50367;SDS011;36281;34.132;-118.018;2024-02-26T07:02:36;19.52;;;12.45;;
50367;SDS011;36281;34.132;-118.018;2024-02-26T07:05:06;14.98;;;11.77;;
50367;SDS011;36281;34.132;-118.018;2024-02-26T07:07:36;14.77;;;10.75;;
50367;SDS011;36281;34.132;-118.018;2024-02-26T07:10:05;12.98;;;9.73;;
50367;SDS011;36281;34.132;-118.018;2024-02-26T07:12:37;11.57;;;9.57;;
50367;SDS011;36281;34.132;-118.018;2024-02-26T07:15:06;11.80;;;10.18;;
50367;SDS011;36281;34.132;-118.018;2024-02-26T07:17:37;12.57;;;9.95;;
50367;SDS011;36281;34.132;-118.018;2024-02-26T07:20:10;10.50;;;8.73;;
50367;SDS011;36281;34.132;-118.018;2024-02-26T07:22:39;12.75;;;9.55;;
50367;SDS011;36281;34.132;-118.018;2024-02-26T07:25:11;11.88;;;9.00;;
50367;SDS011;36281;34.132;-118.018;2024-02-26T07:27:41;12.45;;;8.98;;
50367;SDS011;36281;34.132;-118.018;2024-02-26T07:30:10;12.70;;;9.23;;
50367;SDS011;36281;34.132;-118.018;2024-02-26T07:32:40;12.20;;;8.38;;
50367;SDS011;36281;34.132;-118.018;2024-02-26T07:35:09;14.27;;;9.10;;
50367;SDS011;36281;34.132;-118.018;2024-02-26T07:37:38;11.40;;;8.75;;
50367;SDS011;36281;34.132;-118.018;2024-02-26T07:40:08;8.57;;;7.75;;
50367;SDS011;36281;34.132;-118.018;2024-02-26T07:42:39;12.07;;;8.82;;
50367;SDS011;36281;34.132;-118.018;2024-02-26T07:45:08;8.93;;;7.93;;
50367;SDS011;36281;34.132;-118.018;2024-02-26T07:47:38;10.95;;;7.82;;
50367;SDS011;36281;34.132;-118.018;2024-02-26T07:50:09;10.38;;;7.68;;
50367;SDS011;36281;34.132;-118.018;2024-02-26T07:52:39;11.10;;;7.78;;
50367;SDS011;36281;34.132;-118.018;2024-02-26T07:55:09;10.63;;;7.60;;
50367;SDS011;36281;34.132;-118.018;2024-02-26T07:57:41;13.55;;;8.65;;
50367;SDS011;36281;34.132;-118.018;2024-02-26T08:00:11;10.93;;;7.72;;
50367;SDS011;36281;34.132;-118.018;2024-02-26T08:02:44;13.25;;;8.32;;
50367;SDS011;36281;34.132;-118.018;2024-02-26T08:05:14;19.60;;;8.27;;
50367;SDS011;36281;34.132;-118.018;2024-02-26T08:07:43;12.07;;;8.50;;
50367;SDS011;36281;34.132;-118.018;2024-02-26T08:10:13;12.32;;;8.30;;
50367;SDS011;36281;34.132;-118.018;2024-02-26T08:12:44;10.30;;;7.60;;
50367;SDS011;36281;34.132;-118.018;2024-02-26T08:15:13;10.05;;;7.93;;
50367;SDS011;36281;34.132;-118.018;2024-02-26T08:17:42;11.80;;;8.40;;
50367;SDS011;36281;34.132;-118.018;2024-02-26T08:20:11;13.07;;;8.90;;
50367;SDS011;36281;34.132;-118.018;2024-02-26T08:22:40;13.40;;;9.55;;
50367;SDS011;36281;34.132;-118.018;2024-02-26T08:25:10;12.63;;;8.38;;
50367;SDS011;36281;34.132;-118.018;2024-02-26T08:27:39;9.90;;;8.90;;
50367;SDS011;36281;34.132;-118.018;2024-02-26T08:30:11;14.15;;;9.85;;
50367;SDS011;36281;34.132;-118.018;2024-02-26T08:32:44;15.55;;;9.85;;
50367;SDS011;36281;34.132;-118.018;2024-02-26T08:35:18;14.23;;;9.57;;
50367;SDS011;36281;34.132;-118.018;2024-02-26T08:37:47;12.52;;;9.82;;
50367;SDS011;36281;34.132;-118.018;2024-02-26T08:40:16;13.73;;;10.63;;
50367;SDS011;36281;34.132;-118.018;2024-02-26T08:42:47;11.55;;;9.55;;
50367;SDS011;36281;34.132;-118.018;2024-02-26T08:45:18;13.35;;;9.50;;
50367;SDS011;36281;34.132;-118.018;2024-02-26T08:47:47;13.80;;;10.63;;
50367;SDS011;36281;34.132;-118.018;2024-02-26T08:50:16;14.23;;;10.48;;
50367;SDS011;36281;34.132;-118.018;2024-02-26T08:52:45;13.80;;;10.00;;
50367;SDS011;36281;34.132;-118.018;2024-02-26T08:55:18;14.52;;;10.70;;
50367;SDS011;36281;34.132;-118.018;2024-02-26T08:57:47;14.80;;;10.50;;
50367;SDS011;36281;34.132;-118.018;2024-02-26T09:00:18;13.57;;;10.23;;
50367;SDS011;36281;34.132;-118.018;2024-02-26T09:02:48;11.50;;;9.00;;
50367;SDS011;36281;34.132;-118.018;2024-02-26T09:05:17;10.85;;;9.25;;
50367;SDS011;36281;34.132;-118.018;2024-02-26T09:07:46;10.93;;;8.65;;
50367;SDS011;36281;34.132;-118.018;2024-02-26T09:10:15;11.85;;;9.63;;
50367;SDS011;36281;34.132;-118.018;2024-02-26T09:12:44;16.35;;;8.98;;
50367;SDS011;36281;34.132;-118.018;2024-02-26T09:15:14;14.25;;;9.27;;
50367;SDS011;36281;34.132;-118.018;2024-02-26T09:17:45;11.85;;;8.82;;
50367;SDS011;36281;34.132;-118.018;2024-02-26T09:20:14;11.07;;;8.32;;
50367;SDS011;36281;34.132;-118.018;2024-02-26T09:22:43;11.60;;;8.60;;
50367;SDS011;36281;34.132;-118.018;2024-02-26T09:25:13;10.38;;;8.05;;
50367;SDS011;36281;34.132;-118.018;2024-02-26T09:27:43;11.02;;;8.23;;
50367;SDS011;36281;34.132;-118.018;2024-02-26T09:30:13;13.57;;;8.57;;
50367;SDS011;36281;34.132;-118.018;2024-02-26T09:32:45;12.50;;;7.88;;
50367;SDS011;36281;34.132;-118.018;2024-02-26T09:35:16;12.48;;;8.20;;
50367;SDS011;36281;34.132;-118.018;2024-02-26T09:37:45;11.15;;;8.43;;
50367;SDS011;36281;34.132;-118.018;2024-02-26T09:40:16;9.68;;;7.68;;
50367;SDS011;36281;34.132;-118.018;2024-02-26T09:42:45;11.63;;;7.80;;
50367;SDS011;36281;34.132;-118.018;2024-02-26T09:45:17;11.02;;;7.75;;
50367;SDS011;36281;34.132;-118.018;2024-02-26T09:47:51;9.50;;;7.95;;
50367;SDS011;36281;34.132;-118.018;2024-02-26T09:50:20;12.90;;;8.70;;
50367;SDS011;36281;34.132;-118.018;2024-02-26T09:52:51;10.23;;;8.50;;
50367;SDS011;36281;34.132;-118.018;2024-02-26T09:55:23;13.20;;;8.60;;
50367;SDS011;36281;34.132;-118.018;2024-02-26T09:57:52;10.75;;;8.18;;
50367;SDS011;36281;34.132;-118.018;2024-02-26T10:00:22;10.55;;;9.18;;
50367;SDS011;36281;34.132;-118.018;2024-02-26T10:02:56;13.73;;;8.55;;
50367;SDS011;36281;34.132;-118.018;2024-02-26T10:05:31;9.60;;;8.05;;
50367;SDS011;36281;34.132;-118.018;2024-02-26T10:08:01;14.32;;;9.30;;
50367;SDS011;36281;34.132;-118.018;2024-02-26T10:10:32;10.68;;;8.15;;
50367;SDS011;36281;34.132;-118.018;2024-02-26T10:13:02;10.60;;;8.98;;
50367;SDS011;36281;34.132;-118.018;2024-02-26T10:15:37;12.37;;;9.00;;
50367;SDS011;36281;34.132;-118.018;2024-02-26T10:18:08;13.02;;;9.65;;
50367;SDS011;36281;34.132;-118.018;2024-02-26T10:20:37;14.35;;;10.00;;
50367;SDS011;36281;34.132;-118.018;2024-02-26T10:23:07;15.60;;;10.48;;
50367;SDS011;36281;34.132;-118.018;2024-02-26T10:25:36;15.80;;;10.77;;
50367;SDS011;36281;34.132;-118.018;2024-02-26T10:28:05;14.93;;;10.68;;
50367;SDS011;36281;34.132;-118.018;2024-02-26T10:30:36;15.02;;;11.05;;
50367;SDS011;36281;34.132;-118.018;2024-02-26T10:33:06;17.00;;;11.80;;
50367;SDS011;36281;34.132;-118.018;2024-02-26T10:35:38;15.18;;;12.02;;
50367;SDS011;36281;34.132;-118.018;2024-02-26T10:38:08;18.40;;;12.13;;
50367;SDS011;36281;34.132;-118.018;2024-02-26T10:40:37;15.48;;;12.05;;
50367;SDS011;36281;34.132;-118.018;2024-02-26T10:43:06;17.05;;;11.60;;
50367;SDS011;36281;34.132;-118.018;2024-02-26T10:45:35;15.35;;;11.68;;
50367;SDS011;36281;34.132;-118.018;2024-02-26T10:48:05;14.57;;;11.15;;
50367;SDS011;36281;34.132;-118.018;2024-02-26T10:50:42;15.98;;;11.73;;
50367;SDS011;36281;34.132;-118.018;2024-02-26T10:53:13;17.50;;;12.88;;
50367;SDS011;36281;34.132;-118.018;2024-02-26T10:55:45;15.93;;;11.50;;
50367;SDS011;36281;34.132;-118.018;2024-02-26T10:58:18;14.02;;;11.52;;
50367;SDS011;36281;34.132;-118.018;2024-02-26T11:00:49;18.67;;;12.93;;
50367;SDS011;36281;34.132;-118.018;2024-02-26T11:03:22;16.58;;;12.90;;
50367;SDS011;36281;34.132;-118.018;2024-02-26T11:05:52;16.25;;;12.82;;
50367;SDS011;36281;34.132;-118.018;2024-02-26T11:08:22;17.52;;;14.18;;
50367;SDS011;36281;34.132;-118.018;2024-02-26T11:10:52;17.80;;;14.25;;
50367;SDS011;36281;34.132;-118.018;2024-02-26T11:13:23;18.10;;;12.98;;
50367;SDS011;36281;34.132;-118.018;2024-02-26T11:16:00;18.00;;;13.55;;
50367;SDS011;36281;34.132;-118.018;2024-02-26T11:18:31;20.38;;;13.82;;
50367;SDS011;36281;34.132;-118.018;2024-02-26T11:21:02;18.27;;;13.75;;
50367;SDS011;36281;34.132;-118.018;2024-02-26T11:23:33;18.80;;;14.18;;
50367;SDS011;36281;34.132;-118.018;2024-02-26T11:26:08;17.67;;;12.80;;
50367;SDS011;36281;34.132;-118.018;2024-02-26T11:28:39;18.95;;;13.20;;
50367;SDS011;36281;34.132;-118.018;2024-02-26T11:31:09;16.15;;;12.68;;
50367;SDS011;36281;34.132;-118.018;2024-02-26T11:33:42;19.85;;;13.02;;
50367;SDS011;36281;34.132;-118.018;2024-02-26T11:36:11;17.02;;;13.27;;
50367;SDS011;36281;34.132;-118.018;2024-02-26T11:38:41;17.25;;;13.48;;
50367;SDS011;36281;34.132;-118.018;2024-02-26T11:41:11;17.98;;;13.30;;
50367;SDS011;36281;34.132;-118.018;2024-02-26T11:43:52;19.13;;;12.73;;
50367;SDS011;36281;34.132;-118.018;2024-02-26T11:46:26;20.73;;;13.30;;
50367;SDS011;36281;34.132;-118.018;2024-02-26T11:49:02;20.00;;;13.57;;
50367;SDS011;36281;34.132;-118.018;2024-02-26T11:51:52;17.42;;;13.23;;
50367;SDS011;36281;34.132;-118.018;2024-02-26T11:54:38;17.95;;;13.13;;
50367;SDS011;36281;34.132;-118.018;2024-02-26T11:57:21;19.33;;;13.63;;
50367;SDS011;36281;34.132;-118.018;2024-02-26T11:59:52;18.70;;;13.45;;
50367;SDS011;36281;34.132;-118.018;2024-02-26T12:02:40;17.25;;;12.65;;
50367;SDS011;36281;34.132;-118.018;2024-02-26T12:05:14;19.88;;;14.02;;
50367;SDS011;36281;34.132;-118.018;2024-02-26T12:07:45;16.65;;;13.07;;
50367;SDS011;36281;34.132;-118.018;2024-02-26T12:10:15;18.15;;;12.50;;
50367;SDS011;36281;34.132;-118.018;2024-02-26T12:12:53;20.23;;;13.05;;
50367;SDS011;36281;34.132;-118.018;2024-02-26T12:15:30;17.92;;;12.75;;
50367;SDS011;36281;34.132;-118.018;2024-02-26T12:18:01;18.77;;;13.38;;
50367;SDS011;36281;34.132;-118.018;2024-02-26T12:20:33;22.38;;;13.88;;
50367;SDS011;36281;34.132;-118.018;2024-02-26T12:23:03;19.80;;;13.77;;
50367;SDS011;36281;34.132;-118.018;2024-02-26T12:25:32;17.60;;;13.38;;
50367;SDS011;36281;34.132;-118.018;2024-02-26T12:28:01;19.95;;;13.90;;
50367;SDS011;36281;34.132;-118.018;2024-02-26T12:30:31;19.77;;;14.02;;
50367;SDS011;36281;34.132;-118.018;2024-02-26T12:33:00;17.10;;;13.95;;
50367;SDS011;36281;34.132;-118.018;2024-02-26T12:35:30;16.95;;;13.43;;
50367;SDS011;36281;34.132;-118.018;2024-02-26T12:38:01;17.05;;;13.35;;
50367;SDS011;36281;34.132;-118.018;2024-02-26T12:40:31;15.65;;;12.00;;
50367;SDS011;36281;34.132;-118.018;2024-02-26T12:43:00;15.57;;;12.35;;
50367;SDS011;36281;34.132;-118.018;2024-02-26T12:45:30;17.38;;;12.15;;
50367;SDS011;36281;34.132;-118.018;2024-02-26T12:47:59;17.17;;;11.45;;
50367;SDS011;36281;34.132;-118.018;2024-02-26T12:50:29;15.75;;;11.65;;
50367;SDS011;36281;34.132;-118.018;2024-02-26T12:53:01;15.75;;;11.40;;
50367;SDS011;36281;34.132;-118.018;2024-02-26T12:55:30;18.33;;;10.13;;
50367;SDS011;36281;34.132;-118.018;2024-02-26T12:58:02;12.98;;;10.63;;
50367;SDS011;36281;34.132;-118.018;2024-02-26T13:00:32;15.10;;;11.50;;
50367;SDS011;36281;34.132;-118.018;2024-02-26T13:03:02;14.60;;;10.48;;
50367;SDS011;36281;34.132;-118.018;2024-02-26T13:05:31;12.35;;;9.95;;
50367;SDS011;36281;34.132;-118.018;2024-02-26T13:08:04;13.93;;;10.35;;
50367;SDS011;36281;34.132;-118.018;2024-02-26T13:10:35;14.18;;;10.57;;
50367;SDS011;36281;34.132;-118.018;2024-02-26T13:13:04;14.95;;;10.43;;
50367;SDS011;36281;34.132;-118.018;2024-02-26T13:15:34;14.70;;;9.70;;
50367;SDS011;36281;34.132;-118.018;2024-02-26T13:18:09;15.18;;;10.35;;
50367;SDS011;36281;34.132;-118.018;2024-02-26T13:20:39;14.75;;;11.02;;
50367;SDS011;36281;34.132;-118.018;2024-02-26T13:23:10;13.45;;;10.18;;
50367;SDS011;36281;34.132;-118.018;2024-02-26T13:25:40;13.40;;;10.05;;
50367;SDS011;36281;34.132;-118.018;2024-02-26T13:28:13;13.10;;;10.85;;
50367;SDS011;36281;34.132;-118.018;2024-02-26T13:30:50;16.85;;;11.23;;
50367;SDS011;36281;34.132;-118.018;2024-02-26T13:33:20;15.15;;;11.48;;
50367;SDS011;36281;34.132;-118.018;2024-02-26T13:35:50;15.70;;;11.32;;
50367;SDS011;36281;34.132;-118.018;2024-02-26T13:38:22;16.45;;;11.90;;
50367;SDS011;36281;34.132;-118.018;2024-02-26T13:40:51;15.73;;;11.18;;
50367;SDS011;36281;34.132;-118.018;2024-02-26T13:43:21;15.27;;;11.40;;
50367;SDS011;36281;34.132;-118.018;2024-02-26T13:45:50;19.48;;;11.40;;
50367;SDS011;36281;34.132;-118.018;2024-02-26T13:48:19;18.15;;;12.07;;
50367;SDS011;36281;34.132;-118.018;2024-02-26T13:50:49;17.58;;;11.15;;
50367;SDS011;36281;34.132;-118.018;2024-02-26T13:53:18;15.48;;;11.05;;
50367;SDS011;36281;34.132;-118.018;2024-02-26T13:55:49;15.48;;;10.93;;
50367;SDS011;36281;34.132;-118.018;2024-02-26T13:58:18;14.43;;;11.52;;
50367;SDS011;36281;34.132;-118.018;2024-02-26T14:00:50;15.70;;;11.23;;
50367;SDS011;36281;34.132;-118.018;2024-02-26T14:03:19;15.55;;;10.68;;
50367;SDS011;36281;34.132;-118.018;2024-02-26T14:05:49;15.20;;;11.38;;
50367;SDS011;36281;34.132;-118.018;2024-02-26T14:08:18;17.48;;;10.82;;
50367;SDS011;36281;34.132;-118.018;2024-02-26T14:10:49;13.70;;;10.30;;
50367;SDS011;36281;34.132;-118.018;2024-02-26T14:13:18;13.13;;;9.52;;